createdAt,value
2023-04-03T00:02:01.498Z,12.65
2023-04-03T00:04:47.807Z,5.00
2023-04-03T00:07:38.884Z,1.70
2023-04-03T00:10:24.933Z,5.15
2023-04-03T00:13:41.359Z,3.20
2023-04-03T00:17:10.613Z,2.20
2023-04-03T00:19:56.639Z,2.80
2023-04-03T00:22:42.341Z,4.63
2023-04-03T00:25:27.947Z,5.63
2023-04-03T00:28:13.651Z,6.10
2023-04-03T00:31:27.401Z,3.97
2023-04-03T00:34:13.316Z,3.35
2023-04-03T00:36:59.148Z,9.85
2023-04-03T00:39:44.847Z,2.53
2023-04-03T00:42:48.266Z,2.47
2023-04-03T00:45:37.955Z,3.65
2023-04-03T00:52:55.552Z,11.98
2023-04-03T00:55:41.933Z,23.90
2023-04-03T00:58:34.826Z,17.90
2023-04-03T01:01:39.752Z,6.70
2023-04-03T01:04:40.886Z,9.02
2023-04-03T01:07:31.854Z,3.72
2023-04-03T01:10:20.622Z,2.72
2023-04-03T01:14:25.392Z,2.15
2023-04-03T01:17:36.370Z,3.40
2023-04-03T01:20:38.653Z,4.55
2023-04-03T01:23:33.305Z,6.18
2023-04-03T01:26:19.233Z,5.05
2023-04-03T01:29:10.934Z,3.65
2023-04-03T01:31:58.831Z,2.80
2023-04-03T01:34:44.662Z,2.22
2023-04-03T01:37:30.547Z,2.58
2023-04-03T01:40:16.472Z,5.72
2023-04-03T01:43:02.893Z,2.58
2023-04-03T01:45:50.392Z,2.35
2023-04-03T01:48:37.003Z,4.72
2023-04-03T01:51:23.044Z,2.95
2023-04-03T01:54:56.640Z,2.83
2023-04-03T01:57:42.610Z,2.35
2023-04-03T02:00:28.551Z,3.00
2023-04-03T02:03:14.151Z,3.00
2023-04-03T02:05:59.881Z,2.67
2023-04-03T02:08:45.772Z,2.60
2023-04-03T02:11:41.679Z,3.03
2023-04-03T02:14:28.492Z,5.55
2023-04-03T02:17:14.423Z,7.90
2023-04-03T02:20:00.747Z,16.08
2023-04-03T02:22:46.730Z,6.90
2023-04-03T02:25:32.926Z,6.97
2023-04-03T02:28:18.580Z,6.88
2023-04-03T02:31:05.353Z,5.50
2023-04-03T02:33:51.806Z,11.18
2023-04-03T02:36:38.345Z,13.57
2023-04-03T02:39:27.395Z,11.82
2023-04-03T02:42:14.680Z,12.60
2023-04-03T02:45:01.539Z,13.20
2023-04-03T02:47:47.559Z,13.68
2023-04-03T02:50:33.106Z,9.40
2023-04-03T02:53:19.453Z,14.13
2023-04-03T02:56:08.916Z,15.00
2023-04-03T02:58:55.298Z,19.13
2023-04-03T03:01:41.384Z,17.30
2023-04-03T03:04:27.327Z,23.98
2023-04-03T03:07:12.857Z,23.35
2023-04-03T03:09:58.634Z,130.38
2023-04-03T03:12:46.419Z,141.77
2023-04-03T03:15:32.272Z,224.57
2023-04-03T03:18:17.918Z,213.32
2023-04-03T03:21:04.591Z,102.43
2023-04-03T03:23:51.866Z,77.32
2023-04-03T03:26:37.678Z,48.30
2023-04-03T03:29:24.414Z,49.55
2023-04-03T03:32:10.280Z,50.63
2023-04-03T03:34:56.017Z,46.20
2023-04-03T03:37:41.703Z,40.58
2023-04-03T03:40:28.047Z,34.88
2023-04-03T03:43:13.676Z,38.15
2023-04-03T03:45:59.467Z,47.20
2023-04-03T03:48:46.651Z,64.10
2023-04-03T03:51:32.287Z,86.75
2023-04-03T03:54:17.919Z,99.65
2023-04-03T03:57:03.815Z,102.63
2023-04-03T03:59:52.746Z,107.18
2023-04-03T04:02:39.482Z,106.82
2023-04-03T04:05:25.329Z,108.68
2023-04-03T04:08:12.573Z,99.60
2023-04-03T04:10:58.697Z,74.97
2023-04-03T04:13:44.449Z,51.55
2023-04-03T04:16:32.595Z,35.50
2023-04-03T04:19:23.302Z,26.67
2023-04-03T04:22:08.996Z,19.20
2023-04-03T04:24:54.814Z,19.67
2023-04-03T04:27:40.594Z,25.98
2023-04-03T04:30:28.451Z,27.92
2023-04-03T04:33:17.342Z,25.25
2023-04-03T04:36:04.211Z,20.52
2023-04-03T04:38:53.856Z,14.15
2023-04-03T04:41:41.840Z,14.25
2023-04-03T04:44:29.131Z,18.13
2023-04-03T04:47:30.104Z,13.00
2023-04-03T04:50:16.268Z,15.68
2023-04-03T04:53:02.299Z,12.23
2023-04-03T04:55:48.082Z,13.18
2023-04-03T04:58:33.747Z,18.15
2023-04-03T05:01:21.094Z,25.08
2023-04-03T05:04:34.401Z,46.15
2023-04-03T05:08:34.452Z,51.40
2023-04-03T05:12:41.326Z,43.83
2023-04-03T05:15:27.787Z,23.45
2023-04-03T05:18:13.779Z,29.13
2023-04-03T05:21:07.976Z,23.15
2023-04-03T05:23:53.790Z,38.03
2023-04-03T05:26:40.606Z,26.42
2023-04-03T05:29:27.484Z,28.60
2023-04-03T05:37:23.576Z,38.08
2023-04-03T05:40:12.131Z,25.67
2023-04-03T05:43:02.006Z,25.00
2023-04-03T05:45:53.218Z,26.45
2023-04-03T05:48:40.914Z,30.60
2023-04-03T05:51:32.950Z,33.17
2023-04-03T05:54:34.674Z,35.10
2023-04-03T05:57:33.104Z,49.08
2023-04-03T06:00:19.768Z,46.25
2023-04-03T06:03:15.099Z,31.15
2023-04-03T06:06:04.717Z,22.95
2023-04-03T06:08:51.214Z,31.52
2023-04-03T06:11:37.185Z,21.73
2023-04-03T06:14:22.882Z,28.63
2023-04-03T06:17:10.054Z,26.67
2023-04-03T06:19:58.933Z,36.00
2023-04-03T06:22:45.519Z,30.85
2023-04-03T06:25:34.717Z,19.15
2023-04-03T06:28:20.870Z,19.83
2023-04-03T06:31:06.764Z,28.83
2023-04-03T06:33:53.353Z,14.55
2023-04-03T06:36:40.232Z,4.38
2023-04-03T06:39:26.656Z,7.32
2023-04-03T06:42:14.902Z,12.45
2023-04-03T06:45:13.701Z,6.82
2023-04-03T06:48:05.289Z,6.63
2023-04-03T06:50:51.790Z,26.42
2023-04-03T06:53:37.860Z,10.57
2023-04-03T06:56:24.090Z,8.43
2023-04-03T06:59:10.810Z,6.32
2023-04-03T07:02:02.495Z,9.80
2023-04-03T07:04:49.087Z,7.97
2023-04-03T07:07:39.680Z,5.10
2023-04-03T07:10:26.696Z,22.35
2023-04-03T07:13:14.974Z,5.55
2023-04-03T07:16:07.818Z,6.70
2023-04-03T07:19:00.402Z,4.57
2023-04-03T07:21:49.316Z,6.93
2023-04-03T07:24:35.811Z,7.63
2023-04-03T07:27:21.569Z,10.00
2023-04-03T07:30:08.842Z,12.93
2023-04-03T07:32:54.754Z,9.27
2023-04-03T07:35:43.859Z,7.80
2023-04-03T07:38:30.159Z,12.27
2023-04-03T07:41:18.625Z,10.00
2023-04-03T07:44:05.698Z,13.45
2023-04-03T07:46:51.988Z,13.73
2023-04-03T07:49:40.695Z,11.55
2023-04-03T07:52:26.847Z,18.40
2023-04-03T07:55:12.911Z,11.20
2023-04-03T07:57:59.028Z,13.15
2023-04-03T08:00:45.256Z,14.30
2023-04-03T08:03:31.311Z,16.02
2023-04-03T08:06:19.967Z,15.20
2023-04-03T08:09:07.580Z,15.85
2023-04-03T08:11:54.608Z,19.63
2023-04-03T08:14:40.867Z,15.20
2023-04-03T08:17:27.379Z,23.88
2023-04-03T08:20:13.679Z,19.60
2023-04-03T08:22:59.584Z,12.30
2023-04-03T08:25:45.659Z,13.25
2023-04-03T08:28:31.325Z,14.60
2023-04-03T08:31:19.613Z,7.72
2023-04-03T08:34:05.226Z,13.63
2023-04-03T08:36:51.044Z,13.23
2023-04-03T08:39:36.786Z,7.22
2023-04-03T08:42:54.770Z,20.80
2023-04-03T08:45:52.354Z,16.23
2023-04-03T08:48:42.670Z,15.38
2023-04-03T08:51:28.934Z,16.80
2023-04-03T08:54:35.537Z,22.15
2023-04-03T08:57:37.460Z,24.02
2023-04-03T09:00:25.451Z,18.10
2023-04-03T09:03:15.103Z,12.52
2023-04-03T09:06:23.047Z,10.80
2023-04-03T09:09:16.139Z,18.33
2023-04-03T09:12:16.898Z,7.28
2023-04-03T09:15:24.837Z,19.90
2023-04-03T09:18:33.124Z,8.93
2023-04-03T09:21:29.820Z,17.80
2023-04-03T09:24:17.350Z,9.35
2023-04-03T09:27:06.845Z,28.50
2023-04-03T09:29:55.361Z,16.52
2023-04-03T09:32:41.730Z,11.38
2023-04-03T09:35:40.609Z,10.20
2023-04-03T09:38:35.077Z,10.45
2023-04-03T09:41:21.249Z,18.08
2023-04-03T09:44:22.391Z,10.88
2023-04-03T09:47:25.278Z,18.63
2023-04-03T09:50:14.268Z,8.50
2023-04-03T09:53:00.204Z,10.13
2023-04-03T09:55:46.831Z,15.80
2023-04-03T09:58:50.530Z,17.98
2023-04-03T10:01:40.005Z,17.55
2023-04-03T10:04:27.007Z,2.35
2023-04-03T10:07:27.963Z,8.25
2023-04-03T10:10:25.013Z,7.53
2023-04-03T10:13:22.218Z,10.68
2023-04-03T10:16:10.459Z,6.38
2023-04-03T10:19:19.762Z,14.55
2023-04-03T10:22:28.990Z,4.70
2023-04-03T10:25:17.552Z,13.70
2023-04-03T10:28:31.054Z,16.23
2023-04-03T10:31:25.888Z,12.15
2023-04-03T10:34:26.085Z,9.65
2023-04-03T10:37:54.759Z,4.47
2023-04-03T10:40:58.908Z,5.15
2023-04-03T10:44:05.192Z,13.55
2023-04-03T10:46:54.899Z,5.57
2023-04-03T10:49:42.544Z,13.52
2023-04-03T10:53:11.318Z,7.88
2023-04-03T10:55:59.612Z,6.00
2023-04-03T10:59:19.007Z,20.50
2023-04-03T11:02:34.854Z,7.72
2023-04-03T11:05:45.018Z,11.55
2023-04-03T11:08:43.687Z,10.20
2023-04-03T11:11:36.361Z,5.63
2023-04-03T11:14:28.544Z,9.70
2023-04-03T11:17:20.462Z,6.68
2023-04-03T11:20:28.746Z,5.70
2023-04-03T11:23:48.741Z,8.07
2023-04-03T11:26:40.905Z,17.98
2023-04-03T11:29:37.720Z,6.28
2023-04-03T11:33:00.691Z,8.48
2023-04-03T11:35:48.540Z,16.80
2023-04-03T11:38:37.457Z,14.00
2023-04-03T11:41:27.745Z,11.77
2023-04-03T11:44:37.778Z,4.45
2023-04-03T11:47:51.457Z,17.63
2023-04-03T11:50:42.114Z,3.33
2023-04-03T11:53:40.248Z,11.10
2023-04-03T11:56:28.023Z,13.27
2023-04-03T11:59:24.522Z,6.38
2023-04-03T12:02:51.676Z,25.38
2023-04-03T12:05:44.398Z,17.63
2023-04-03T12:08:42.834Z,14.48
2023-04-03T12:11:32.667Z,14.23
2023-04-03T12:14:19.145Z,16.48
2023-04-03T12:17:25.612Z,22.23
2023-04-03T12:20:51.811Z,14.90
2023-04-03T12:24:09.135Z,5.30
2023-04-03T12:26:58.234Z,11.32
2023-04-03T12:30:05.015Z,5.30
2023-04-03T12:33:12.529Z,10.75
2023-04-03T12:36:19.620Z,16.25
2023-04-03T12:39:07.429Z,14.32
2023-04-03T12:42:10.713Z,5.40
2023-04-03T12:44:59.614Z,22.17
2023-04-03T12:47:46.428Z,12.75
2023-04-03T12:50:37.184Z,24.42
2023-04-03T12:53:39.635Z,6.07
2023-04-03T12:56:28.266Z,8.80
2023-04-03T12:59:27.778Z,6.32
2023-04-03T13:02:27.354Z,12.30
2023-04-03T13:05:18.651Z,16.27
2023-04-03T13:08:09.708Z,11.20
2023-04-03T13:11:00.583Z,11.20
2023-04-03T13:13:58.811Z,20.77
2023-04-03T13:17:05.733Z,11.27
2023-04-03T13:19:52.441Z,8.70
2023-04-03T13:22:49.599Z,8.30
2023-04-03T13:25:37.803Z,12.50
2023-04-03T13:28:25.014Z,26.90
2023-04-03T13:31:15.218Z,14.45
2023-04-03T13:34:10.508Z,14.65
2023-04-03T13:36:59.528Z,21.33
2023-04-03T13:39:45.462Z,13.70
2023-04-03T13:42:34.140Z,13.70
2023-04-03T13:45:31.055Z,12.65
2023-04-03T13:48:23.729Z,8.48
2023-04-03T13:51:12.865Z,9.73
2023-04-03T13:54:11.464Z,19.05
2023-04-03T13:56:58.716Z,9.88
2023-04-03T13:59:45.791Z,13.70
2023-04-03T14:02:33.793Z,8.98
2023-04-03T14:05:22.454Z,10.13
2023-04-03T14:08:08.503Z,9.27
2023-04-03T14:10:54.662Z,8.18
2023-04-03T14:13:40.602Z,12.30
2023-04-03T14:16:30.644Z,8.13
2023-04-03T14:19:22.774Z,11.57
2023-04-03T14:22:36.417Z,16.88
2023-04-03T14:25:24.933Z,11.35
2023-04-03T14:28:18.117Z,13.68
2023-04-03T14:31:03.874Z,10.38
2023-04-03T14:33:50.519Z,16.92
2023-04-03T14:36:36.702Z,17.00
2023-04-03T14:39:22.978Z,26.10
2023-04-03T14:42:15.719Z,24.73
2023-04-03T14:45:04.394Z,7.55
2023-04-03T14:47:52.961Z,12.63
2023-04-03T14:50:38.961Z,14.15
2023-04-03T14:53:37.908Z,10.55
2023-04-03T14:56:29.060Z,21.35
2023-04-03T14:59:16.519Z,14.40
2023-04-03T15:02:02.225Z,9.50
2023-04-03T15:04:48.237Z,8.25
2023-04-03T15:07:39.172Z,6.70
2023-04-03T15:10:27.283Z,9.00
2023-04-03T15:13:13.888Z,7.07
2023-04-03T15:16:00.537Z,7.72
2023-04-03T15:18:47.539Z,7.18
2023-04-03T15:21:33.527Z,11.75
2023-04-03T15:24:19.596Z,7.28
2023-04-03T15:27:05.227Z,7.65
2023-04-03T15:29:51.441Z,7.78
2023-04-03T15:32:37.538Z,8.70
2023-04-03T15:35:24.005Z,9.75
2023-04-03T16:03:36.133Z,11.48
2023-04-03T16:06:22.605Z,8.02
2023-04-03T16:09:10.069Z,9.18
2023-04-03T16:11:56.246Z,9.32
2023-04-03T16:14:42.424Z,7.88
2023-04-03T16:17:28.833Z,9.38
2023-04-03T16:20:15.769Z,7.40
2023-04-03T16:23:02.240Z,18.95
2023-04-03T16:25:49.027Z,28.80
2023-04-03T16:28:34.874Z,10.48
2023-04-03T16:31:21.468Z,9.02
2023-04-03T16:34:07.491Z,8.93
2023-04-03T16:36:56.214Z,23.25
2023-04-03T16:39:41.933Z,21.73
2023-04-03T16:42:27.607Z,21.10
2023-04-03T16:45:13.568Z,7.60
2023-04-03T16:47:59.386Z,7.35
2023-04-03T16:50:50.051Z,8.65
2023-04-03T16:53:36.939Z,7.97
2023-04-03T16:56:23.291Z,7.20
2023-04-03T16:59:09.269Z,9.13
2023-04-03T17:01:55.693Z,8.70
2023-04-03T17:04:41.606Z,11.10
2023-04-03T17:07:27.458Z,5.35
2023-04-03T17:10:17.783Z,8.13
2023-04-03T17:13:12.428Z,5.68
2023-04-03T17:15:59.982Z,5.88
2023-04-03T17:18:45.801Z,8.32
2023-04-03T17:21:32.713Z,5.50
2023-04-03T17:24:18.536Z,5.70
2023-04-03T17:27:04.619Z,5.07
2023-04-03T17:29:50.469Z,5.32
2023-04-03T17:32:39.173Z,5.28
2023-04-03T17:35:25.614Z,5.68
2023-04-03T17:38:11.305Z,4.10
2023-04-03T17:41:02.221Z,8.07
2023-04-03T17:43:47.999Z,6.63
2023-04-03T17:46:34.777Z,7.25
2023-04-03T17:49:22.526Z,6.55
2023-04-03T17:52:08.985Z,5.20
2023-04-03T17:54:55.031Z,6.75
2023-04-03T17:57:40.816Z,9.70
2023-04-03T18:00:27.826Z,7.20
2023-04-03T18:03:13.827Z,4.97
2023-04-03T18:06:03.575Z,5.10
2023-04-03T18:08:52.179Z,4.72
2023-04-03T18:11:38.568Z,4.53
2023-04-03T18:14:26.242Z,4.80
2023-04-03T18:17:12.133Z,4.18
2023-04-03T18:19:58.075Z,4.57
2023-04-03T18:22:44.103Z,3.75
2023-04-03T18:28:23.315Z,3.00
2023-04-03T18:31:13.377Z,3.33
2023-04-03T18:33:59.336Z,3.25
2023-04-03T18:36:46.589Z,2.92
2023-04-03T18:39:43.717Z,2.92
2023-04-03T18:42:29.800Z,3.72
2023-04-03T18:45:18.016Z,5.53
2023-04-03T18:48:16.495Z,4.05
2023-04-03T18:51:02.917Z,3.15
2023-04-03T18:53:48.910Z,3.30
2023-04-03T18:56:34.869Z,2.65
2023-04-03T18:59:21.605Z,2.22
2023-04-03T19:02:10.941Z,2.42
2023-04-03T19:04:56.807Z,3.33
2023-04-03T19:07:44.802Z,4.75
2023-04-03T19:10:31.054Z,2.22
2023-04-03T19:14:10.507Z,2.25
2023-04-03T19:17:03.142Z,5.68
2023-04-03T19:19:49.217Z,1.63
2023-04-03T19:22:35.280Z,2.15
2023-04-03T19:25:21.638Z,2.33
2023-04-03T19:28:07.496Z,3.30
2023-04-03T19:30:53.680Z,1.60
2023-04-03T19:33:42.551Z,1.30
2023-04-03T19:36:28.342Z,1.67
2023-04-03T19:39:15.573Z,1.58
2023-04-03T19:42:02.903Z,3.03
2023-04-03T19:44:54.840Z,1.60
2023-04-03T19:47:41.378Z,1.35
2023-04-03T19:50:27.349Z,2.13
2023-04-03T19:53:18.828Z,2.58
2023-04-03T19:56:04.986Z,3.83
2023-04-03T19:58:54.369Z,1.75
2023-04-03T20:01:47.528Z,2.08
2023-04-03T20:04:33.150Z,1.20
2023-04-03T20:07:18.831Z,1.83
2023-04-03T20:10:04.722Z,1.60
2023-04-03T20:17:34.619Z,1.35
2023-04-03T20:20:55.746Z,2.03
2023-04-03T20:23:41.875Z,1.17
2023-04-03T20:26:29.918Z,1.90
2023-04-03T20:29:16.825Z,1.48
2023-04-03T20:36:59.466Z,5.75
2023-04-03T20:40:25.987Z,1.60
2023-04-03T20:43:21.900Z,1.30
2023-04-03T20:49:49.041Z,1.20
2023-04-03T20:52:36.327Z,1.48
2023-04-03T20:55:22.715Z,1.55
2023-04-03T20:58:08.687Z,0.63
2023-04-03T21:00:56.599Z,1.10
2023-04-03T21:03:43.844Z,1.02
2023-04-03T21:11:49.215Z,2.85
2023-04-03T21:15:24.235Z,2.80
2023-04-03T21:18:10.075Z,1.23
2023-04-03T21:20:56.004Z,0.75
2023-04-03T21:25:13.159Z,1.00
2023-04-03T21:27:59.254Z,1.33
2023-04-03T21:30:45.166Z,1.60
2023-04-03T21:33:31.700Z,1.17
2023-04-03T21:36:20.695Z,0.47
2023-04-03T21:39:06.412Z,1.83
2023-04-03T21:41:52.551Z,0.57
2023-04-03T21:49:14.509Z,0.60
2023-04-03T21:52:00.335Z,0.90
2023-04-03T21:54:45.940Z,2.40
2023-04-03T22:03:00.539Z,0.60
2023-04-03T22:07:24.048Z,5.18
2023-04-03T22:10:10.010Z,0.70
2023-04-03T22:12:55.912Z,1.10
2023-04-03T22:25:06.064Z,0.40
2023-04-03T22:27:51.925Z,0.70
2023-04-03T22:30:39.697Z,0.77
2023-04-03T22:33:25.691Z,1.73
2023-04-03T22:36:12.725Z,0.68
2023-04-03T22:39:00.231Z,0.45
2023-04-03T22:41:46.212Z,0.77
2023-04-03T22:49:09.144Z,0.75
2023-04-03T22:51:54.750Z,1.97
2023-04-03T22:54:40.515Z,0.40
2023-04-03T22:57:26.575Z,0.80
2023-04-03T23:00:13.237Z,0.75
2023-04-03T23:03:00.916Z,2.60
2023-04-03T23:05:47.056Z,1.05
2023-04-03T23:08:35.184Z,1.90
2023-04-03T23:11:21.459Z,0.82
2023-04-03T23:14:07.354Z,1.08
2023-04-03T23:16:53.445Z,1.65
2023-04-03T23:19:39.418Z,0.50
2023-04-03T23:22:25.431Z,1.38
2023-04-03T23:25:11.492Z,0.73
2023-04-03T23:27:57.520Z,1.13
2023-04-03T23:30:43.722Z,0.60
2023-04-03T23:33:30.817Z,0.63
2023-04-03T23:36:17.006Z,0.40
2023-04-03T23:39:03.765Z,0.60
2023-04-03T23:41:50.232Z,0.60
2023-04-03T23:44:36.453Z,0.90
2023-04-03T23:47:22.199Z,1.40
2023-04-03T23:50:08.668Z,0.98
2023-04-03T23:52:54.392Z,2.10
2023-04-03T23:55:40.342Z,1.27
2023-04-03T23:58:26.347Z,0.50
